Terminal Aerodrome Forecast
Issued by NWS Blacksburg, VA

Home | Current Version | Previous Version | Text Only | Print | Product List | Glossary On
Versions: 1 2 3 4 5 6 7 8 9 10 11 12 13 14 15 16 17 18 19 20 21 22 23 24 25 26 27 28 29 30 31 32 33 34 35 36 37
000
FTUS41 KRNK 262341
TAFBLF
TAF
KBLF 262341Z 2700/2724 28008KT P6SM -SHRA OVC007
      TEMPO 2700/2703 4SM -SHRA BR
     FM270600 31009KT 2SM -SHRA BR OVC005
     FM270900 32008KT 3SM -SN BR SCT005 BKN015
     FM271500 32008KT P6SM OVC015
     FM272100 33008KT P6SM SCT025 BKN100=

USA.gov is the U.S. government's official web portal to all federal, state and local government web resources and services.